createdAt,value
2018-11-14T00:00:59.431Z,37.07
2018-11-14T00:03:33.909Z,45.20
2018-11-14T00:06:07.395Z,41.10
2018-11-14T00:08:41.340Z,44.53
2018-11-14T00:11:15.305Z,46.07
2018-11-14T00:13:49.057Z,47.53
2018-11-14T00:16:22.593Z,45.87
2018-11-14T00:18:56.575Z,47.13
2018-11-14T00:21:30.159Z,39.67
2018-11-14T00:24:04.430Z,41.20
2018-11-14T00:26:38.105Z,47.73
2018-11-14T00:29:12.097Z,52.67
2018-11-14T00:31:46.445Z,50.07
2018-11-14T00:34:20.907Z,53.23
2018-11-14T00:36:55.291Z,48.33
2018-11-14T00:39:29.489Z,55.93
2018-11-14T00:42:03.517Z,55.67
2018-11-14T00:44:37.400Z,47.70
2018-11-14T00:47:10.893Z,57.83
2018-11-14T00:49:44.753Z,60.87
2018-11-14T00:52:18.729Z,48.07
2018-11-14T00:54:52.865Z,52.17
2018-11-14T00:57:26.755Z,48.50
2018-11-14T01:00:01.275Z,48.90
2018-11-14T01:02:37.474Z,53.47
2018-11-14T01:05:13.245Z,59.03
2018-11-14T01:07:47.165Z,64.17
2018-11-14T01:10:21.877Z,65.27
2018-11-14T01:12:55.827Z,63.03
2018-11-14T01:15:29.809Z,54.53
2018-11-14T01:18:05.087Z,62.07
2018-11-14T01:20:39.139Z,54.33
2018-11-14T01:23:13.637Z,53.23
2018-11-14T01:25:47.284Z,54.80
2018-11-14T01:28:21.459Z,61.03
2018-11-14T01:30:55.613Z,55.80
2018-11-14T01:33:29.833Z,56.10
2018-11-14T01:36:03.921Z,70.63
2018-11-14T01:38:37.485Z,83.40
2018-11-14T01:41:11.514Z,57.83
2018-11-14T01:43:45.854Z,62.77
2018-11-14T01:46:20.338Z,61.33
2018-11-14T01:48:54.433Z,53.60
2018-11-14T01:51:28.181Z,73.23
2018-11-14T01:54:02.212Z,50.57
2018-11-14T01:56:36.455Z,74.30
2018-11-14T01:59:10.720Z,55.47
2018-11-14T02:01:44.813Z,69.73
2018-11-14T02:04:18.603Z,60.60
2018-11-14T02:06:52.401Z,66.90
2018-11-14T02:09:26.468Z,60.53
2018-11-14T02:12:00.492Z,71.63
2018-11-14T02:14:34.978Z,52.83
2018-11-14T02:17:09.208Z,63.37
2018-11-14T02:19:43.761Z,56.50
2018-11-14T02:22:17.682Z,50.10
2018-11-14T02:24:51.601Z,60.87
2018-11-14T02:27:26.186Z,64.40
2018-11-14T02:30:00.328Z,65.63
2018-11-14T02:32:33.948Z,67.90
2018-11-14T02:35:08.914Z,60.17
2018-11-14T02:37:43.786Z,62.47
2018-11-14T02:40:19.297Z,56.33
2018-11-14T02:42:53.271Z,65.43
2018-11-14T02:45:26.993Z,65.40
2018-11-14T02:48:01.276Z,56.57
2018-11-14T02:50:35.335Z,54.50
2018-11-14T02:53:09.403Z,45.17
2018-11-14T02:55:43.708Z,69.07
2018-11-14T02:58:17.969Z,62.07
2018-11-14T03:00:52.000Z,64.60
2018-11-14T03:03:26.429Z,59.57
2018-11-14T03:06:00.930Z,54.13
2018-11-14T03:08:35.521Z,61.03
2018-11-14T03:11:09.678Z,56.63
2018-11-14T03:13:43.422Z,62.10
2018-11-14T03:16:17.837Z,65.90
2018-11-14T03:18:52.049Z,59.83
2018-11-14T03:21:26.218Z,52.63
2018-11-14T03:24:00.370Z,58.50
2018-11-14T03:26:34.609Z,64.70
2018-11-14T03:29:08.360Z,58.93
2018-11-14T03:31:42.084Z,59.33
2018-11-14T03:34:15.822Z,70.60
2018-11-14T03:36:49.685Z,72.47
2018-11-14T03:39:23.761Z,64.53
2018-11-14T03:42:10.669Z,73.90
2018-11-14T03:44:44.322Z,63.20
2018-11-14T03:47:18.753Z,69.40
2018-11-14T03:49:52.657Z,60.90
2018-11-14T03:52:26.548Z,61.13
2018-11-14T03:55:00.990Z,51.93
2018-11-14T03:57:34.785Z,56.27
2018-11-14T04:00:12.143Z,55.97
2018-11-14T04:02:46.669Z,60.83
2018-11-14T04:05:20.313Z,59.97
2018-11-14T04:07:54.829Z,62.67
2018-11-14T04:10:28.724Z,66.80
2018-11-14T04:13:03.064Z,80.17
2018-11-14T04:15:37.348Z,69.63
2018-11-14T04:18:11.191Z,66.20
2018-11-14T04:20:45.265Z,73.83
2018-11-14T04:23:19.168Z,57.33
2018-11-14T04:25:53.293Z,63.37
2018-11-14T04:28:27.608Z,57.17
2018-11-14T04:31:01.958Z,67.73
2018-11-14T04:33:35.895Z,57.47
2018-11-14T04:36:09.965Z,69.90
2018-11-14T04:38:43.590Z,63.93
2018-11-14T04:41:17.578Z,66.23
2018-11-14T04:43:51.659Z,56.23
2018-11-14T04:46:25.501Z,68.87
2018-11-14T04:48:59.233Z,68.53
2018-11-14T04:51:33.621Z,69.93
2018-11-14T04:54:07.757Z,66.63
2018-11-14T04:56:41.297Z,64.93
2018-11-14T04:59:14.817Z,68.13
2018-11-14T05:01:48.825Z,59.10
2018-11-14T05:04:22.945Z,54.97
2018-11-14T05:06:56.494Z,68.87
2018-11-14T05:09:30.284Z,58.87
2018-11-14T05:12:04.334Z,76.03
2018-11-14T05:14:37.921Z,58.20
2018-11-14T05:17:11.998Z,48.47
2018-11-14T05:19:46.099Z,67.80
2018-11-14T05:22:20.627Z,62.63
2018-11-14T05:24:54.684Z,55.27
2018-11-14T05:27:28.153Z,49.23
2018-11-14T05:30:02.256Z,56.93
2018-11-14T05:32:36.607Z,63.60
2018-11-14T05:35:11.824Z,77.07
2018-11-14T05:37:45.905Z,71.60
2018-11-14T05:40:21.809Z,70.50
2018-11-14T05:42:55.446Z,60.80
2018-11-14T05:45:29.258Z,50.30
2018-11-14T05:48:03.332Z,56.53
2018-11-14T05:50:37.305Z,54.03
2018-11-14T05:53:11.582Z,63.63
2018-11-14T05:55:45.578Z,79.27
2018-11-14T05:58:19.589Z,63.13
2018-11-14T06:00:53.773Z,51.27
2018-11-14T06:03:27.767Z,53.80
2018-11-14T06:06:01.971Z,55.67
2018-11-14T06:08:35.828Z,69.43
2018-11-14T06:11:09.714Z,55.90
2018-11-14T06:13:43.285Z,58.17
2018-11-14T06:16:17.316Z,51.73
2018-11-14T06:18:51.145Z,48.50
2018-11-14T06:21:25.410Z,53.07
2018-11-14T06:23:59.414Z,56.37
2018-11-14T06:26:33.922Z,55.17
2018-11-14T06:29:07.910Z,53.70
2018-11-14T06:31:41.649Z,50.43
2018-11-14T06:34:16.119Z,53.53
2018-11-14T06:36:49.728Z,45.73
2018-11-14T06:39:23.793Z,44.87
2018-11-14T06:41:57.914Z,54.57
2018-11-14T06:44:32.345Z,63.27
2018-11-14T06:47:06.202Z,60.43
2018-11-14T06:49:39.960Z,45.77
2018-11-14T06:52:20.970Z,51.57
2018-11-14T06:54:55.502Z,60.27
2018-11-14T06:57:29.430Z,43.40
2018-11-14T07:00:03.389Z,53.13
2018-11-14T07:02:38.338Z,60.97
2018-11-14T07:05:13.228Z,52.77
2018-11-14T07:07:46.974Z,56.07
2018-11-14T07:10:22.003Z,56.33
2018-11-14T07:13:02.157Z,53.63
2018-11-14T07:15:36.474Z,51.40
2018-11-14T07:18:11.018Z,57.93
2018-11-14T07:20:45.032Z,55.00
2018-11-14T07:23:18.899Z,48.83
2018-11-14T07:25:52.587Z,71.17
2018-11-14T07:28:26.560Z,63.77
2018-11-14T07:31:00.918Z,71.33
2018-11-14T07:33:35.037Z,63.07
2018-11-14T07:36:08.629Z,66.13
2018-11-14T07:38:47.785Z,80.50
2018-11-14T07:41:28.177Z,68.37
2018-11-14T07:44:02.246Z,82.83
2018-11-14T07:46:36.781Z,67.87
2018-11-14T07:49:10.746Z,77.30
2018-11-14T07:51:44.555Z,70.97
2018-11-14T07:54:18.674Z,69.40
2018-11-14T07:56:52.370Z,67.70
2018-11-14T07:59:26.927Z,70.27
2018-11-14T08:02:01.243Z,66.47
2018-11-14T08:04:35.097Z,70.87
2018-11-14T08:07:09.111Z,67.50
2018-11-14T08:09:49.584Z,67.07
2018-11-14T08:12:24.188Z,73.60
2018-11-14T08:14:58.122Z,55.70
2018-11-14T08:17:32.496Z,64.97
2018-11-14T08:20:09.044Z,71.20
2018-11-14T08:22:43.125Z,65.67
2018-11-14T08:25:17.131Z,66.73
2018-11-14T08:27:51.212Z,58.87
2018-11-14T08:30:25.732Z,62.53
2018-11-14T08:32:59.456Z,65.10
2018-11-14T08:35:33.633Z,52.43
2018-11-14T08:38:08.621Z,58.37
2018-11-14T08:40:43.073Z,63.73
2018-11-14T08:43:17.038Z,74.00
2018-11-14T08:45:50.749Z,52.97
2018-11-14T08:48:24.816Z,67.10
2018-11-14T08:50:59.156Z,53.60
2018-11-14T08:53:33.225Z,58.70
2018-11-14T08:56:07.111Z,60.43
2018-11-14T08:58:41.123Z,66.40
2018-11-14T09:01:15.394Z,54.17
2018-11-14T09:03:49.867Z,52.77
2018-11-14T09:06:23.869Z,63.33
2018-11-14T09:08:57.913Z,41.73
2018-11-14T09:11:32.403Z,51.77
2018-11-14T09:14:06.883Z,65.60
2018-11-14T09:16:40.723Z,64.23
2018-11-14T09:19:14.596Z,61.50
2018-11-14T09:21:48.427Z,56.33
2018-11-14T09:24:22.743Z,50.47
2018-11-14T09:26:56.413Z,63.90
2018-11-14T09:29:30.923Z,50.90
2018-11-14T09:32:04.570Z,49.60
2018-11-14T09:34:38.401Z,63.60
2018-11-14T09:37:12.855Z,50.97
2018-11-14T09:39:47.281Z,42.03
2018-11-14T09:42:21.088Z,46.37
2018-11-14T09:44:55.019Z,45.13
2018-11-14T09:47:36.213Z,45.93
2018-11-14T09:50:13.732Z,52.17
2018-11-14T09:52:49.668Z,47.13
2018-11-14T09:55:23.329Z,39.47
2018-11-14T09:57:57.446Z,46.00
2018-11-14T10:00:32.944Z,50.63
2018-11-14T10:03:09.317Z,31.73
2018-11-14T10:05:43.158Z,39.53
2018-11-14T10:08:17.005Z,47.17
2018-11-14T10:10:51.295Z,41.20
2018-11-14T10:13:25.790Z,33.07
2018-11-14T10:16:00.362Z,28.90
2018-11-14T10:18:34.054Z,25.87
2018-11-14T10:21:08.248Z,33.03
2018-11-14T10:23:42.617Z,31.83
2018-11-14T10:26:16.938Z,25.47
2018-11-14T10:28:50.841Z,29.60
2018-11-14T10:31:26.105Z,25.83
2018-11-14T10:33:59.513Z,28.87
2018-11-14T10:36:33.763Z,26.97
2018-11-14T10:39:08.865Z,29.80
2018-11-14T10:41:42.749Z,21.90
2018-11-14T10:44:16.723Z,32.07
2018-11-14T10:46:51.157Z,25.80
2018-11-14T10:49:25.553Z,29.77
2018-11-14T10:51:59.371Z,26.90
2018-11-14T10:54:33.452Z,21.40
2018-11-14T10:57:07.793Z,24.70
2018-11-14T10:59:41.776Z,24.33
2018-11-14T11:02:21.516Z,20.17
2018-11-14T11:05:01.433Z,20.53
2018-11-14T11:07:41.360Z,22.00
2018-11-14T11:10:20.833Z,24.27
2018-11-14T11:14:02.671Z,17.23
2018-11-14T11:16:41.718Z,19.80
2018-11-14T11:19:17.607Z,19.70
2018-11-14T11:21:51.997Z,22.27
2018-11-14T11:24:26.334Z,25.53
2018-11-14T11:27:00.405Z,18.17
2018-11-14T11:29:34.481Z,18.20
2018-11-14T11:32:08.857Z,19.57
2018-11-14T11:34:42.931Z,18.90
2018-11-14T11:37:17.349Z,10.43
2018-11-14T11:39:51.025Z,17.73
2018-11-14T11:42:24.863Z,16.77
2018-11-14T11:44:58.689Z,18.43
2018-11-14T11:47:33.029Z,18.00
2018-11-14T11:50:07.392Z,15.63
2018-11-14T11:52:41.847Z,12.33
2018-11-14T11:55:15.501Z,14.00
2018-11-14T11:57:49.503Z,20.70
2018-11-14T12:00:23.553Z,13.97
2018-11-14T12:02:57.983Z,12.20
2018-11-14T12:05:32.593Z,20.47
2018-11-14T12:08:06.471Z,18.43
2018-11-14T12:10:40.483Z,14.63
2018-11-14T12:13:14.506Z,18.37
2018-11-14T12:15:48.289Z,13.00
2018-11-14T12:18:22.241Z,14.70
2018-11-14T12:20:56.736Z,17.73
2018-11-14T12:23:30.731Z,28.40
2018-11-14T12:26:05.105Z,14.60
2018-11-14T12:28:39.533Z,12.17
2018-11-14T12:31:13.537Z,15.67
2018-11-14T12:33:47.842Z,12.63
2018-11-14T12:36:22.609Z,13.97
2018-11-14T12:38:56.493Z,22.23
2018-11-14T12:41:30.549Z,15.87
2018-11-14T12:44:04.461Z,18.57
2018-11-14T12:46:38.668Z,12.30
2018-11-14T12:49:13.014Z,16.17
2018-11-14T12:51:46.765Z,11.90
2018-11-14T12:54:21.178Z,13.07
2018-11-14T12:56:54.934Z,16.80
2018-11-14T12:59:29.399Z,17.17
2018-11-14T13:02:03.915Z,16.17
2018-11-14T13:04:38.720Z,15.47
2018-11-14T13:07:12.604Z,17.53
2018-11-14T13:09:46.549Z,17.03
2018-11-14T13:12:20.448Z,18.30
2018-11-14T13:14:54.398Z,12.40
2018-11-14T13:17:28.055Z,15.63
2018-11-14T13:20:01.979Z,17.77
2018-11-14T13:22:35.871Z,20.17
2018-11-14T13:25:11.295Z,21.50
2018-11-14T13:27:46.746Z,13.33
2018-11-14T13:30:21.898Z,15.10
2018-11-14T13:32:56.166Z,19.13
2018-11-14T13:35:31.205Z,18.90
2018-11-14T13:38:05.189Z,18.80
2018-11-14T13:43:19.365Z,15.97
2018-11-14T13:45:53.143Z,15.50
2018-11-14T13:48:27.474Z,16.77
2018-11-14T13:51:01.759Z,20.53
2018-11-14T13:53:35.626Z,18.43
2018-11-14T13:56:09.590Z,16.73
2018-11-14T13:58:43.662Z,18.43
2018-11-14T14:01:17.497Z,18.77
2018-11-14T14:03:51.688Z,22.70
2018-11-14T14:06:25.517Z,20.57
2018-11-14T14:08:59.496Z,20.63
2018-11-14T14:11:33.350Z,29.50
2018-11-14T14:14:11.862Z,13.10
2018-11-14T14:16:46.102Z,14.77
2018-11-14T14:19:19.594Z,15.80
2018-11-14T14:21:53.633Z,28.57
2018-11-14T14:24:27.935Z,17.27
2018-11-14T14:27:01.745Z,25.03
2018-11-14T14:29:36.000Z,21.73
2018-11-14T14:32:09.828Z,14.50
2018-11-14T14:34:43.613Z,20.00
2018-11-14T14:37:17.142Z,20.03
2018-11-14T14:39:51.530Z,18.03
2018-11-14T14:42:25.582Z,20.43
2018-11-14T14:44:59.762Z,22.53
2018-11-14T14:47:33.729Z,19.17
2018-11-14T14:50:09.514Z,15.73
2018-11-14T14:52:44.370Z,26.47
2018-11-14T14:55:20.522Z,21.17
2018-11-14T14:57:54.880Z,18.63
2018-11-14T15:00:29.387Z,21.23
2018-11-14T15:03:03.297Z,20.10
2018-11-14T15:05:37.473Z,23.20
2018-11-14T15:08:11.275Z,22.43
2018-11-14T15:10:45.358Z,19.60
2018-11-14T15:13:19.607Z,22.13
2018-11-14T15:15:53.858Z,21.93
2018-11-14T15:18:27.808Z,20.00
2018-11-14T15:21:01.675Z,19.43
2018-11-14T15:23:35.388Z,21.23
2018-11-14T15:26:09.354Z,20.03
2018-11-14T15:28:43.486Z,15.73
2018-11-14T15:31:17.877Z,23.10
2018-11-14T15:33:51.629Z,17.57
2018-11-14T15:36:25.784Z,21.37
2018-11-14T15:38:59.801Z,19.07
2018-11-14T15:41:33.755Z,18.37
2018-11-14T15:44:08.382Z,15.73
2018-11-14T15:46:42.469Z,15.50
2018-11-14T15:49:16.333Z,20.67
2018-11-14T15:51:50.321Z,28.03
2018-11-14T15:54:24.181Z,24.93
2018-11-14T15:56:57.929Z,22.87
2018-11-14T15:59:32.405Z,14.40
2018-11-14T16:02:05.983Z,16.43
2018-11-14T16:04:39.531Z,25.77
2018-11-14T16:07:13.425Z,27.57
2018-11-14T16:09:47.537Z,22.07
2018-11-14T16:12:21.813Z,23.97
2018-11-14T16:14:55.599Z,23.80
2018-11-14T16:17:29.765Z,14.20
2018-11-14T16:20:05.270Z,19.13
2018-11-14T16:22:38.969Z,26.73
2018-11-14T16:25:16.320Z,21.93
2018-11-14T16:27:51.776Z,20.37
2018-11-14T16:30:30.495Z,22.17
2018-11-14T16:33:06.210Z,19.60
2018-11-14T16:35:39.844Z,22.33
2018-11-14T16:38:14.104Z,18.67
2018-11-14T16:40:48.141Z,20.80
2018-11-14T16:43:21.795Z,23.67
2018-11-14T16:45:55.736Z,17.47
2018-11-14T16:48:29.990Z,19.87
2018-11-14T16:51:03.917Z,21.37
2018-11-14T16:53:38.481Z,23.97
2018-11-14T16:56:13.313Z,29.80
2018-11-14T16:58:47.411Z,21.53
2018-11-14T17:01:21.324Z,16.97
2018-11-14T17:03:55.232Z,24.10
2018-11-14T17:06:29.238Z,20.40
2018-11-14T17:09:05.001Z,19.20
2018-11-14T17:11:38.807Z,19.83
2018-11-14T17:14:12.603Z,20.20
2018-11-14T17:16:46.941Z,17.93
2018-11-14T17:19:20.884Z,16.50
2018-11-14T17:21:55.061Z,18.67
2018-11-14T17:24:29.023Z,19.47
2018-11-14T17:27:03.029Z,26.37
2018-11-14T17:29:36.756Z,23.70
2018-11-14T17:32:11.346Z,26.27
2018-11-14T17:34:45.897Z,16.00
2018-11-14T17:37:19.808Z,25.03
2018-11-14T17:39:54.045Z,22.87
2018-11-14T17:42:28.213Z,20.43
2018-11-14T17:45:02.388Z,21.93
2018-11-14T17:47:36.278Z,28.83
2018-11-14T17:50:26.617Z,27.20
2018-11-14T17:53:01.282Z,19.80
2018-11-14T17:55:35.256Z,28.03
2018-11-14T17:58:09.320Z,36.33
2018-11-14T18:00:43.505Z,24.37
2018-11-14T18:03:17.415Z,38.40
2018-11-14T18:05:51.973Z,28.63
2018-11-14T18:08:25.653Z,27.20
2018-11-14T18:10:59.437Z,27.27
2018-11-14T18:13:33.609Z,32.10
2018-11-14T18:16:07.670Z,24.90
2018-11-14T18:18:41.517Z,29.60
2018-11-14T18:21:15.908Z,31.13
2018-11-14T18:23:50.023Z,26.63
2018-11-14T18:26:24.033Z,34.00
2018-11-14T18:28:58.129Z,24.07
2018-11-14T18:31:32.274Z,26.67
2018-11-14T18:34:07.457Z,27.77
2018-11-14T18:36:41.546Z,23.50
2018-11-14T18:39:15.513Z,21.20
2018-11-14T18:41:49.138Z,23.40
2018-11-14T18:44:23.482Z,27.63
2018-11-14T18:46:56.974Z,25.20
2018-11-14T18:49:31.405Z,35.07
2018-11-14T18:52:05.927Z,28.77
2018-11-14T18:54:40.041Z,27.73
2018-11-14T18:57:14.588Z,30.63
2018-11-14T18:59:48.690Z,30.53
2018-11-14T19:02:22.776Z,28.83
2018-11-14T19:04:56.682Z,23.50
2018-11-14T19:07:31.290Z,27.33
2018-11-14T19:10:07.481Z,28.67
2018-11-14T19:12:42.383Z,37.70
2018-11-14T19:15:20.186Z,26.63
2018-11-14T19:17:53.882Z,29.57
2018-11-14T19:20:29.281Z,31.83
2018-11-14T19:23:04.612Z,32.93
2018-11-14T19:25:39.310Z,31.43
2018-11-14T19:28:13.837Z,35.47
2018-11-14T19:30:48.090Z,28.23
2018-11-14T19:33:21.672Z,29.43
2018-11-14T19:35:55.421Z,28.50
2018-11-14T19:38:30.050Z,28.23
2018-11-14T19:41:04.662Z,30.13
2018-11-14T19:43:39.021Z,36.40
2018-11-14T19:46:13.104Z,23.40
2018-11-14T19:48:47.211Z,27.13
2018-11-14T19:51:21.238Z,28.53
2018-11-14T19:53:55.428Z,27.23
2018-11-14T19:56:29.933Z,31.10
2018-11-14T19:59:04.425Z,27.00
2018-11-14T20:01:38.287Z,30.17
2018-11-14T20:04:12.292Z,34.00
2018-11-14T20:06:46.366Z,27.60
2018-11-14T20:09:20.319Z,26.20
2018-11-14T20:11:54.760Z,26.43
2018-11-14T20:14:28.697Z,23.57
2018-11-14T20:17:02.810Z,28.27
2018-11-14T20:19:36.331Z,29.33
2018-11-14T20:22:10.166Z,35.43
2018-11-14T20:24:44.139Z,26.43
2018-11-14T20:27:18.059Z,25.87
2018-11-14T20:29:51.910Z,34.80
2018-11-14T20:32:25.758Z,33.60
2018-11-14T20:34:59.467Z,34.73
2018-11-14T20:37:33.541Z,40.97
2018-11-14T20:40:08.697Z,34.33
2018-11-14T20:42:42.981Z,29.07
2018-11-14T20:45:18.253Z,33.47
2018-11-14T20:47:52.566Z,29.93
2018-11-14T20:50:26.870Z,30.33
2018-11-14T20:53:02.752Z,26.77
2018-11-14T20:55:36.642Z,30.30
2018-11-14T20:58:10.372Z,31.23
2018-11-14T21:00:44.041Z,27.63
2018-11-14T21:03:18.489Z,25.10
2018-11-14T21:05:52.469Z,29.33
2018-11-14T21:08:26.474Z,32.40
2018-11-14T21:11:00.388Z,34.60
2018-11-14T21:13:34.681Z,32.93
2018-11-14T21:16:08.494Z,36.73
2018-11-14T21:18:42.773Z,33.30
2018-11-14T21:21:17.484Z,35.53
2018-11-14T21:23:52.096Z,30.60
2018-11-14T21:26:26.757Z,33.27
2018-11-14T21:29:01.402Z,36.17
2018-11-14T21:31:35.489Z,27.43
2018-11-14T21:34:10.126Z,36.73
2018-11-14T21:36:44.267Z,30.30
2018-11-14T21:39:19.073Z,26.93
2018-11-14T21:41:54.236Z,30.10
2018-11-14T21:44:28.026Z,30.57
2018-11-14T21:47:02.434Z,29.23
2018-11-14T21:49:36.342Z,32.80
2018-11-14T21:52:10.285Z,31.33
2018-11-14T21:54:44.122Z,25.93
2018-11-14T21:57:18.611Z,32.07
2018-11-14T21:59:53.218Z,31.10
2018-11-14T22:02:27.078Z,25.70
2018-11-14T22:05:00.800Z,25.70
2018-11-14T22:07:41.250Z,25.57
2018-11-14T22:10:16.574Z,23.33
2018-11-14T22:12:50.662Z,28.43
2018-11-14T22:15:25.796Z,22.77
2018-11-14T22:17:59.506Z,24.10
2018-11-14T22:20:33.767Z,24.47
2018-11-14T22:23:07.571Z,23.60
2018-11-14T22:25:41.502Z,27.00
2018-11-14T22:28:15.510Z,30.83
2018-11-14T22:30:49.296Z,21.70
2018-11-14T22:33:23.222Z,24.53
2018-11-14T22:35:57.139Z,40.37
2018-11-14T22:38:30.962Z,35.53
2018-11-14T22:41:04.989Z,26.13
2018-11-14T22:43:38.525Z,31.37
2018-11-14T22:46:12.805Z,30.27
2018-11-14T22:48:47.073Z,28.03
2018-11-14T22:51:20.541Z,22.73
2018-11-14T22:53:54.506Z,29.43
2018-11-14T22:56:35.133Z,32.57
2018-11-14T22:59:08.853Z,22.23
2018-11-14T23:01:43.392Z,25.70
2018-11-14T23:04:17.701Z,28.07
2018-11-14T23:06:51.909Z,33.70
2018-11-14T23:09:26.048Z,30.27
2018-11-14T23:12:00.260Z,28.00
2018-11-14T23:14:34.553Z,21.83
2018-11-14T23:17:08.727Z,25.50
2018-11-14T23:19:42.839Z,23.40
2018-11-14T23:22:19.967Z,24.83
2018-11-14T23:24:53.706Z,26.57
2018-11-14T23:27:27.503Z,26.13
2018-11-14T23:30:02.036Z,22.30
2018-11-14T23:32:35.738Z,26.27
2018-11-14T23:35:15.383Z,23.97
2018-11-14T23:37:51.889Z,30.30
2018-11-14T23:40:25.953Z,23.00
2018-11-14T23:43:00.350Z,27.17
2018-11-14T23:45:34.901Z,27.17
2018-11-14T23:48:08.878Z,27.33
2018-11-14T23:50:42.684Z,27.97
2018-11-14T23:53:16.930Z,24.63
2018-11-14T23:55:50.685Z,24.27
2018-11-14T23:58:24.608Z,25.57
